sensor_id;sensor_type;location;lat;lon;timestamp;pressure;altitude;pressure_sealevel;temperature;humidity
35655;BME280;21773;50.010;19.972;2023-07-22T00:00:33;98264.06;;;22.46;100.00
35655;BME280;21773;50.010;19.972;2023-07-22T00:03:37;98259.56;;;22.50;100.00
35655;BME280;21773;50.010;19.972;2023-07-22T00:06:41;98262.25;;;22.41;100.00
35655;BME280;21773;50.010;19.972;2023-07-22T00:09:44;98264.31;;;22.36;100.00
35655;BME280;21773;50.010;19.972;2023-07-22T00:12:47;98272.25;;;22.37;100.00
35655;BME280;21773;50.010;19.972;2023-07-22T00:15:50;98244.34;;;22.22;100.00
35655;BME280;21773;50.010;19.972;2023-07-22T00:18:56;98264.94;;;22.33;100.00
35655;BME280;21773;50.010;19.972;2023-07-22T00:22:00;98264.44;;;22.31;100.00
35655;BME280;21773;50.010;19.972;2023-07-22T00:25:03;98255.25;;;22.35;100.00
35655;BME280;21773;50.010;19.972;2023-07-22T00:28:07;98262.06;;;22.38;100.00
35655;BME280;21773;50.010;19.972;2023-07-22T00:31:10;98259.97;;;22.43;100.00
35655;BME280;21773;50.010;19.972;2023-07-22T00:34:15;98255.63;;;22.42;100.00
35655;BME280;21773;50.010;19.972;2023-07-22T00:37:18;98255.94;;;22.41;100.00
35655;BME280;21773;50.010;19.972;2023-07-22T00:40:22;98245.25;;;22.39;100.00
35655;BME280;21773;50.010;19.972;2023-07-22T00:43:25;98245.78;;;22.41;100.00
35655;BME280;21773;50.010;19.972;2023-07-22T00:46:28;98239.78;;;22.39;100.00
35655;BME280;21773;50.010;19.972;2023-07-22T00:49:34;98246.38;;;22.38;100.00
35655;BME280;21773;50.010;19.972;2023-07-22T00:52:38;98231.88;;;22.38;100.00
35655;BME280;21773;50.010;19.972;2023-07-22T00:55:41;98239.91;;;22.34;100.00
35655;BME280;21773;50.010;19.972;2023-07-22T00:58:45;98235.22;;;22.35;100.00
35655;BME280;21773;50.010;19.972;2023-07-22T01:01:48;98227.28;;;22.33;100.00
35655;BME280;21773;50.010;19.972;2023-07-22T01:04:53;98213.56;;;22.33;100.00
35655;BME280;21773;50.010;19.972;2023-07-22T01:07:57;98205.31;;;22.33;100.00
35655;BME280;21773;50.010;19.972;2023-07-22T01:11:00;98209.00;;;22.29;100.00
35655;BME280;21773;50.010;19.972;2023-07-22T01:14:03;98195.41;;;22.24;100.00
35655;BME280;21773;50.010;19.972;2023-07-22T01:17:08;98190.56;;;22.21;100.00
35655;BME280;21773;50.010;19.972;2023-07-22T01:20:15;98184.25;;;22.20;100.00
35655;BME280;21773;50.010;19.972;2023-07-22T01:23:21;98182.31;;;22.21;100.00
35655;BME280;21773;50.010;19.972;2023-07-22T01:26:25;98188.13;;;22.19;100.00
35655;BME280;21773;50.010;19.972;2023-07-22T01:29:29;98177.13;;;22.19;100.00
35655;BME280;21773;50.010;19.972;2023-07-22T01:32:32;98170.84;;;22.19;100.00
35655;BME280;21773;50.010;19.972;2023-07-22T01:35:35;98172.16;;;22.21;100.00
35655;BME280;21773;50.010;19.972;2023-07-22T01:38:40;98177.34;;;22.23;100.00
35655;BME280;21773;50.010;19.972;2023-07-22T01:41:43;98172.78;;;22.18;100.00
35655;BME280;21773;50.010;19.972;2023-07-22T01:44:46;98187.50;;;22.22;100.00
35655;BME280;21773;50.010;19.972;2023-07-22T01:47:50;98192.66;;;22.24;100.00
35655;BME280;21773;50.010;19.972;2023-07-22T01:50:53;98186.69;;;22.22;100.00
35655;BME280;21773;50.010;19.972;2023-07-22T01:53:58;98191.06;;;22.23;100.00
35655;BME280;21773;50.010;19.972;2023-07-22T01:57:01;98193.47;;;22.24;100.00
35655;BME280;21773;50.010;19.972;2023-07-22T02:00:06;98199.31;;;22.23;100.00
35655;BME280;21773;50.010;19.972;2023-07-22T02:03:16;98204.59;;;22.19;100.00
35655;BME280;21773;50.010;19.972;2023-07-22T02:06:20;98211.72;;;22.20;100.00
35655;BME280;21773;50.010;19.972;2023-07-22T02:09:24;98211.72;;;22.20;100.00
35655;BME280;21773;50.010;19.972;2023-07-22T02:12:27;98219.94;;;22.20;100.00
35655;BME280;21773;50.010;19.972;2023-07-22T02:15:30;98220.25;;;22.19;100.00
35655;BME280;21773;50.010;19.972;2023-07-22T02:18:34;98220.59;;;22.17;100.00
35655;BME280;21773;50.010;19.972;2023-07-22T02:21:37;98218.97;;;22.16;100.00
35655;BME280;21773;50.010;19.972;2023-07-22T02:24:41;98222.00;;;22.15;100.00
35655;BME280;21773;50.010;19.972;2023-07-22T02:27:44;98220.59;;;22.17;100.00
35655;BME280;21773;50.010;19.972;2023-07-22T02:30:48;98225.25;;;22.17;100.00
35655;BME280;21773;50.010;19.972;2023-07-22T02:33:52;98223.59;;;22.07;100.00
35655;BME280;21773;50.010;19.972;2023-07-22T02:36:55;98222.09;;;22.01;100.00
35655;BME280;21773;50.010;19.972;2023-07-22T02:39:59;98229.84;;;21.99;100.00
35655;BME280;21773;50.010;19.972;2023-07-22T02:43:03;98217.00;;;21.94;100.00
35655;BME280;21773;50.010;19.972;2023-07-22T02:46:07;98223.31;;;21.95;100.00
35655;BME280;21773;50.010;19.972;2023-07-22T02:49:11;98225.75;;;21.96;100.00
35655;BME280;21773;50.010;19.972;2023-07-22T02:52:14;98235.44;;;21.94;100.00
35655;BME280;21773;50.010;19.972;2023-07-22T02:55:20;98231.34;;;21.91;100.00
35655;BME280;21773;50.010;19.972;2023-07-22T02:58:23;98232.28;;;21.87;100.00
35655;BME280;21773;50.010;19.972;2023-07-22T03:01:27;98237.25;;;21.85;100.00
35655;BME280;21773;50.010;19.972;2023-07-22T03:04:31;98240.00;;;21.85;100.00
35655;BME280;21773;50.010;19.972;2023-07-22T03:07:35;98237.06;;;21.81;100.00
35655;BME280;21773;50.010;19.972;2023-07-22T03:10:40;98236.78;;;21.83;100.00
35655;BME280;21773;50.010;19.972;2023-07-22T03:13:45;98241.44;;;21.82;100.00
35655;BME280;21773;50.010;19.972;2023-07-22T03:16:49;98241.97;;;21.84;100.00
35655;BME280;21773;50.010;19.972;2023-07-22T03:19:52;98244.50;;;21.81;100.00
35655;BME280;21773;50.010;19.972;2023-07-22T03:22:56;98239.00;;;21.81;100.00
35655;BME280;21773;50.010;19.972;2023-07-22T03:26:01;98240.94;;;21.80;100.00
35655;BME280;21773;50.010;19.972;2023-07-22T03:29:04;98240.31;;;21.83;100.00
35655;BME280;21773;50.010;19.972;2023-07-22T03:32:08;98247.94;;;21.86;100.00
35655;BME280;21773;50.010;19.972;2023-07-22T03:35:12;98250.38;;;21.88;100.00
35655;BME280;21773;50.010;19.972;2023-07-22T03:38:15;98251.66;;;21.90;100.00
35655;BME280;21773;50.010;19.972;2023-07-22T03:41:20;98248.63;;;21.92;100.00
35655;BME280;21773;50.010;19.972;2023-07-22T03:44:23;98243.69;;;21.94;100.00
35655;BME280;21773;50.010;19.972;2023-07-22T03:47:28;98248.22;;;21.85;100.00
35655;BME280;21773;50.010;19.972;2023-07-22T03:50:31;98252.59;;;21.86;100.00
35655;BME280;21773;50.010;19.972;2023-07-22T03:53:34;98255.53;;;21.89;100.00
35655;BME280;21773;50.010;19.972;2023-07-22T03:56:40;98238.28;;;21.89;100.00
35655;BME280;21773;50.010;19.972;2023-07-22T03:59:44;98246.28;;;21.85;100.00
35655;BME280;21773;50.010;19.972;2023-07-22T04:02:47;98243.88;;;21.84;100.00
35655;BME280;21773;50.010;19.972;2023-07-22T04:05:54;98244.00;;;21.79;100.00
35655;BME280;21773;50.010;19.972;2023-07-22T04:08:57;98250.50;;;21.83;100.00
35655;BME280;21773;50.010;19.972;2023-07-22T04:12:04;98256.84;;;21.92;100.00
35655;BME280;21773;50.010;19.972;2023-07-22T04:15:08;98254.22;;;21.87;100.00
35655;BME280;21773;50.010;19.972;2023-07-22T04:18:11;98256.84;;;21.92;100.00
35655;BME280;21773;50.010;19.972;2023-07-22T04:21:14;98270.56;;;21.92;100.00
35655;BME280;21773;50.010;19.972;2023-07-22T04:24:17;98269.41;;;21.84;100.00
35655;BME280;21773;50.010;19.972;2023-07-22T04:27:22;98277.94;;;21.83;100.00
35655;BME280;21773;50.010;19.972;2023-07-22T04:30:25;98272.38;;;21.74;100.00
35655;BME280;21773;50.010;19.972;2023-07-22T04:33:29;98282.53;;;21.74;100.00
35655;BME280;21773;50.010;19.972;2023-07-22T04:36:32;98285.97;;;21.66;100.00
35655;BME280;21773;50.010;19.972;2023-07-22T04:39:36;98286.09;;;21.60;100.00
35655;BME280;21773;50.010;19.972;2023-07-22T04:42:41;98302.34;;;21.71;100.00
35655;BME280;21773;50.010;19.972;2023-07-22T04:45:44;98306.41;;;21.73;100.00
35655;BME280;21773;50.010;19.972;2023-07-22T04:48:49;98309.56;;;21.67;100.00
35655;BME280;21773;50.010;19.972;2023-07-22T04:51:53;98310.38;;;21.67;100.00
35655;BME280;21773;50.010;19.972;2023-07-22T04:54:56;98313.19;;;21.76;100.00
35655;BME280;21773;50.010;19.972;2023-07-22T04:58:01;98314.72;;;21.82;100.00
35655;BME280;21773;50.010;19.972;2023-07-22T05:01:05;98314.69;;;21.95;100.00
35655;BME280;21773;50.010;19.972;2023-07-22T05:04:08;98315.28;;;22.06;100.00
35655;BME280;21773;50.010;19.972;2023-07-22T05:07:11;98318.66;;;22.25;100.00
35655;BME280;21773;50.010;19.972;2023-07-22T05:10:15;98316.53;;;22.44;100.00
35655;BME280;21773;50.010;19.972;2023-07-22T05:13:20;98313.72;;;22.58;100.00
35655;BME280;21773;50.010;19.972;2023-07-22T05:16:23;98314.72;;;22.84;100.00
35655;BME280;21773;50.010;19.972;2023-07-22T05:19:27;98321.91;;;23.03;100.00
35655;BME280;21773;50.010;19.972;2023-07-22T05:22:30;98327.50;;;23.20;100.00
35655;BME280;21773;50.010;19.972;2023-07-22T05:25:36;98330.78;;;23.30;100.00
35655;BME280;21773;50.010;19.972;2023-07-22T05:28:41;98332.38;;;23.31;100.00
35655;BME280;21773;50.010;19.972;2023-07-22T05:31:44;98342.25;;;23.24;100.00
35655;BME280;21773;50.010;19.972;2023-07-22T05:34:48;98329.78;;;23.26;100.00
35655;BME280;21773;50.010;19.972;2023-07-22T05:37:51;98330.28;;;23.28;100.00
35655;BME280;21773;50.010;19.972;2023-07-22T05:40:54;98342.56;;;23.22;100.00
35655;BME280;21773;50.010;19.972;2023-07-22T05:43:59;98349.03;;;23.26;100.00
35655;BME280;21773;50.010;19.972;2023-07-22T05:47:02;98348.38;;;23.21;100.00
35655;BME280;21773;50.010;19.972;2023-07-22T05:50:06;98345.41;;;23.09;100.00
35655;BME280;21773;50.010;19.972;2023-07-22T05:53:10;98342.53;;;23.14;100.00
35655;BME280;21773;50.010;19.972;2023-07-22T05:56:13;98350.94;;;23.17;100.00
35655;BME280;21773;50.010;19.972;2023-07-22T05:59:18;98344.19;;;23.23;100.00
35655;BME280;21773;50.010;19.972;2023-07-22T06:02:23;98344.75;;;23.12;100.00
35655;BME280;21773;50.010;19.972;2023-07-22T06:05:26;98344.13;;;23.06;100.00
35655;BME280;21773;50.010;19.972;2023-07-22T06:08:29;98359.25;;;22.95;100.00
35655;BME280;21773;50.010;19.972;2023-07-22T06:11:32;98364.72;;;22.86;100.00
35655;BME280;21773;50.010;19.972;2023-07-22T06:14:37;98366.94;;;22.84;100.00
35655;BME280;21773;50.010;19.972;2023-07-22T06:17:40;98356.81;;;22.94;100.00
35655;BME280;21773;50.010;19.972;2023-07-22T06:20:43;98360.06;;;22.96;100.00
35655;BME280;21773;50.010;19.972;2023-07-22T06:23:46;98369.06;;;23.18;100.00
35655;BME280;21773;50.010;19.972;2023-07-22T06:26:49;98372.22;;;23.34;100.00
35655;BME280;21773;50.010;19.972;2023-07-22T06:29:54;98374.38;;;23.46;100.00
35655;BME280;21773;50.010;19.972;2023-07-22T06:32:58;98376.38;;;23.54;100.00
35655;BME280;21773;50.010;19.972;2023-07-22T06:36:01;98373.88;;;23.83;100.00
35655;BME280;21773;50.010;19.972;2023-07-22T06:39:05;98377.78;;;23.99;100.00
35655;BME280;21773;50.010;19.972;2023-07-22T06:42:08;98383.34;;;24.25;100.00
35655;BME280;21773;50.010;19.972;2023-07-22T06:45:12;98387.25;;;24.33;100.00
35655;BME280;21773;50.010;19.972;2023-07-22T06:48:16;98389.97;;;24.58;100.00
35655;BME280;21773;50.010;19.972;2023-07-22T06:51:19;98386.91;;;24.77;100.00
35655;BME280;21773;50.010;19.972;2023-07-22T06:54:22;98399.41;;;24.92;100.00
35655;BME280;21773;50.010;19.972;2023-07-22T06:57:26;98410.69;;;25.08;100.00
35655;BME280;21773;50.010;19.972;2023-07-22T07:00:30;98391.25;;;24.78;100.00
35655;BME280;21773;50.010;19.972;2023-07-22T07:03:34;98405.56;;;24.89;100.00
35655;BME280;21773;50.010;19.972;2023-07-22T07:06:38;98414.31;;;24.99;100.00
35655;BME280;21773;50.010;19.972;2023-07-22T07:09:41;98422.88;;;25.15;100.00
35655;BME280;21773;50.010;19.972;2023-07-22T07:12:44;98420.13;;;25.15;100.00
35655;BME280;21773;50.010;19.972;2023-07-22T07:15:49;98433.25;;;25.18;100.00
35655;BME280;21773;50.010;19.972;2023-07-22T07:18:52;98431.09;;;25.41;100.00
35655;BME280;21773;50.010;19.972;2023-07-22T07:21:57;98442.91;;;25.59;100.00
35655;BME280;21773;50.010;19.972;2023-07-22T07:25:00;98446.56;;;25.80;100.00
35655;BME280;21773;50.010;19.972;2023-07-22T07:28:04;98457.44;;;25.76;100.00
35655;BME280;21773;50.010;19.972;2023-07-22T07:31:09;98454.03;;;26.09;100.00
35655;BME280;21773;50.010;19.972;2023-07-22T07:34:12;98464.91;;;26.05;100.00
35655;BME280;21773;50.010;19.972;2023-07-22T07:37:16;98466.84;;;26.13;100.00
35655;BME280;21773;50.010;19.972;2023-07-22T07:40:19;98468.38;;;26.32;100.00
35655;BME280;21773;50.010;19.972;2023-07-22T07:43:22;98484.72;;;26.66;100.00
35655;BME280;21773;50.010;19.972;2023-07-22T07:46:28;98470.03;;;26.95;100.00
35655;BME280;21773;50.010;19.972;2023-07-22T07:49:33;98473.59;;;27.16;100.00
35655;BME280;21773;50.010;19.972;2023-07-22T07:52:36;98477.84;;;27.46;100.00
35655;BME280;21773;50.010;19.972;2023-07-22T07:55:40;98492.06;;;27.57;100.00
35655;BME280;21773;50.010;19.972;2023-07-22T07:58:44;98491.19;;;27.77;100.00
35655;BME280;21773;50.010;19.972;2023-07-22T08:01:49;98494.13;;;28.17;100.00
35655;BME280;21773;50.010;19.972;2023-07-22T08:04:52;98497.34;;;28.31;100.00
35655;BME280;21773;50.010;19.972;2023-07-22T08:07:55;98518.16;;;28.25;100.00
35655;BME280;21773;50.010;19.972;2023-07-22T08:10:59;98519.63;;;28.11;100.00
35655;BME280;21773;50.010;19.972;2023-07-22T08:14:03;98517.41;;;27.92;100.00
35655;BME280;21773;50.010;19.972;2023-07-22T08:17:08;98517.16;;;27.73;100.00
35655;BME280;21773;50.010;19.972;2023-07-22T08:20:11;98520.53;;;27.90;100.00
35655;BME280;21773;50.010;19.972;2023-07-22T08:23:15;98531.19;;;28.25;100.00
35655;BME280;21773;50.010;19.972;2023-07-22T08:26:18;98530.41;;;28.36;100.00
35655;BME280;21773;50.010;19.972;2023-07-22T08:29:23;98526.47;;;28.37;100.00
35655;BME280;21773;50.010;19.972;2023-07-22T08:32:27;98536.97;;;28.56;100.00
35655;BME280;21773;50.010;19.972;2023-07-22T08:35:30;98546.06;;;28.69;100.00
35655;BME280;21773;50.010;19.972;2023-07-22T08:38:35;98548.25;;;29.00;100.00
35655;BME280;21773;50.010;19.972;2023-07-22T08:41:40;98553.22;;;28.94;100.00
35655;BME280;21773;50.010;19.972;2023-07-22T08:44:48;98567.34;;;28.89;100.00
35655;BME280;21773;50.010;19.972;2023-07-22T08:47:58;98566.44;;;28.85;100.00
35655;BME280;21773;50.010;19.972;2023-07-22T08:51:03;98579.72;;;28.79;100.00
35655;BME280;21773;50.010;19.972;2023-07-22T08:54:08;98577.78;;;28.68;100.00
35655;BME280;21773;50.010;19.972;2023-07-22T08:57:13;98582.31;;;28.72;100.00
35655;BME280;21773;50.010;19.972;2023-07-22T09:00:16;98577.16;;;28.99;100.00
35655;BME280;21773;50.010;19.972;2023-07-22T09:03:22;98583.69;;;29.18;100.00
35655;BME280;21773;50.010;19.972;2023-07-22T09:06:25;98585.50;;;29.39;100.00
35655;BME280;21773;50.010;19.972;2023-07-22T09:09:29;98580.59;;;29.32;100.00
35655;BME280;21773;50.010;19.972;2023-07-22T09:12:34;98585.91;;;29.13;100.00
35655;BME280;21773;50.010;19.972;2023-07-22T09:15:42;98594.59;;;29.11;100.00
35655;BME280;21773;50.010;19.972;2023-07-22T09:18:47;98590.69;;;29.00;100.00
35655;BME280;21773;50.010;19.972;2023-07-22T09:21:50;98585.47;;;28.99;100.00
35655;BME280;21773;50.010;19.972;2023-07-22T09:24:54;98592.84;;;29.19;100.00
35655;BME280;21773;50.010;19.972;2023-07-22T09:28:14;98589.16;;;29.15;100.00
35655;BME280;21773;50.010;19.972;2023-07-22T09:31:18;98580.41;;;29.01;100.00
35655;BME280;21773;50.010;19.972;2023-07-22T09:34:22;98595.63;;;29.31;100.00
35655;BME280;21773;50.010;19.972;2023-07-22T09:37:36;98600.81;;;29.33;100.00
35655;BME280;21773;50.010;19.972;2023-07-22T09:40:40;98598.63;;;29.14;100.00
35655;BME280;21773;50.010;19.972;2023-07-22T09:43:46;98601.66;;;29.09;100.00
35655;BME280;21773;50.010;19.972;2023-07-22T09:46:50;98600.34;;;29.18;100.00
35655;BME280;21773;50.010;19.972;2023-07-22T09:49:55;98596.38;;;29.44;100.00
35655;BME280;21773;50.010;19.972;2023-07-22T09:52:59;98592.47;;;29.33;100.00
35655;BME280;21773;50.010;19.972;2023-07-22T09:56:03;98595.31;;;28.96;100.00
35655;BME280;21773;50.010;19.972;2023-07-22T09:59:07;98590.53;;;29.09;100.00
35655;BME280;21773;50.010;19.972;2023-07-22T10:02:11;98599.00;;;29.52;100.00
35655;BME280;21773;50.010;19.972;2023-07-22T10:05:17;98582.41;;;29.84;100.00
35655;BME280;21773;50.010;19.972;2023-07-22T10:08:21;98597.47;;;29.83;100.00
35655;BME280;21773;50.010;19.972;2023-07-22T10:11:27;98599.84;;;29.96;100.00
35655;BME280;21773;50.010;19.972;2023-07-22T10:14:32;98603.91;;;29.71;100.00
35655;BME280;21773;50.010;19.972;2023-07-22T10:17:39;98595.75;;;29.78;100.00
35655;BME280;21773;50.010;19.972;2023-07-22T10:20:44;98583.66;;;29.70;100.00
35655;BME280;21773;50.010;19.972;2023-07-22T10:23:48;98593.63;;;30.15;98.88
35655;BME280;21773;50.010;19.972;2023-07-22T10:26:52;98595.38;;;29.92;91.97
35655;BME280;21773;50.010;19.972;2023-07-22T10:29:55;98591.38;;;29.49;92.69
35655;BME280;21773;50.010;19.972;2023-07-22T10:32:59;98606.78;;;29.75;93.07
35655;BME280;21773;50.010;19.972;2023-07-22T10:36:05;98597.72;;;30.21;94.82
35655;BME280;21773;50.010;19.972;2023-07-22T10:39:09;98595.78;;;30.53;90.39
35655;BME280;21773;50.010;19.972;2023-07-22T10:42:24;98602.13;;;30.69;82.15
35655;BME280;21773;50.010;19.972;2023-07-22T10:45:29;98572.53;;;30.61;79.94
35655;BME280;21773;50.010;19.972;2023-07-22T10:48:35;98595.28;;;30.82;77.50
35655;BME280;21773;50.010;19.972;2023-07-22T10:51:41;98592.13;;;30.49;77.48
35655;BME280;21773;50.010;19.972;2023-07-22T10:54:49;98592.91;;;30.34;80.57
35655;BME280;21773;50.010;19.972;2023-07-22T10:57:54;98593.63;;;30.46;81.21
35655;BME280;21773;50.010;19.972;2023-07-22T11:01:22;98599.47;;;30.57;80.38
35655;BME280;21773;50.010;19.972;2023-07-22T11:04:27;98597.38;;;30.23;78.22
35655;BME280;21773;50.010;19.972;2023-07-22T11:08:03;98601.84;;;30.74;78.41
35655;BME280;21773;50.010;19.972;2023-07-22T11:11:10;98592.50;;;30.82;76.80
35655;BME280;21773;50.010;19.972;2023-07-22T11:14:18;98597.25;;;30.97;75.65
35655;BME280;21773;50.010;19.972;2023-07-22T11:17:29;98599.41;;;30.88;74.92
35655;BME280;21773;50.010;19.972;2023-07-22T11:20:32;98601.78;;;31.21;72.59
35655;BME280;21773;50.010;19.972;2023-07-22T11:23:38;98587.13;;;31.44;69.81
35655;BME280;21773;50.010;19.972;2023-07-22T11:26:41;98586.97;;;31.36;70.38
35655;BME280;21773;50.010;19.972;2023-07-22T11:29:48;98575.16;;;31.24;64.37
35655;BME280;21773;50.010;19.972;2023-07-22T11:32:51;98576.50;;;31.30;63.41
35655;BME280;21773;50.010;19.972;2023-07-22T11:35:55;98575.31;;;31.12;65.46
35655;BME280;21773;50.010;19.972;2023-07-22T11:39:05;98580.53;;;30.97;68.60
35655;BME280;21773;50.010;19.972;2023-07-22T11:42:10;98579.31;;;31.14;70.01
35655;BME280;21773;50.010;19.972;2023-07-22T11:45:14;98590.66;;;31.60;68.85
35655;BME280;21773;50.010;19.972;2023-07-22T11:48:18;98593.38;;;31.75;63.40
35655;BME280;21773;50.010;19.972;2023-07-22T11:51:23;98592.19;;;31.57;63.31
35655;BME280;21773;50.010;19.972;2023-07-22T11:54:29;98596.38;;;31.86;72.48
35655;BME280;21773;50.010;19.972;2023-07-22T11:57:32;98588.28;;;32.23;69.54
35655;BME280;21773;50.010;19.972;2023-07-22T12:00:35;98591.16;;;32.49;64.13
35655;BME280;21773;50.010;19.972;2023-07-22T12:03:39;98588.25;;;32.19;65.69
35655;BME280;21773;50.010;19.972;2023-07-22T12:06:42;98585.69;;;32.11;68.00
35655;BME280;21773;50.010;19.972;2023-07-22T12:09:48;98597.75;;;31.96;69.51
35655;BME280;21773;50.010;19.972;2023-07-22T12:12:52;98590.13;;;31.73;68.03
35655;BME280;21773;50.010;19.972;2023-07-22T12:15:59;98593.00;;;31.58;70.61
35655;BME280;21773;50.010;19.972;2023-07-22T12:19:03;98584.56;;;31.73;71.03
35655;BME280;21773;50.010;19.972;2023-07-22T12:22:07;98588.44;;;31.88;71.51
35655;BME280;21773;50.010;19.972;2023-07-22T12:25:13;98580.63;;;31.97;69.69
35655;BME280;21773;50.010;19.972;2023-07-22T12:28:17;98570.38;;;32.24;70.87
35655;BME280;21773;50.010;19.972;2023-07-22T12:31:20;98571.06;;;32.17;69.64
35655;BME280;21773;50.010;19.972;2023-07-22T12:34:23;98563.81;;;32.13;71.14
35655;BME280;21773;50.010;19.972;2023-07-22T12:37:27;98582.22;;;32.17;74.08
35655;BME280;21773;50.010;19.972;2023-07-22T12:40:32;98578.56;;;31.71;74.70
35655;BME280;21773;50.010;19.972;2023-07-22T12:43:36;98581.16;;;31.83;77.03
35655;BME280;21773;50.010;19.972;2023-07-22T12:46:39;98570.88;;;31.65;77.50
35655;BME280;21773;50.010;19.972;2023-07-22T12:49:42;98566.81;;;31.43;79.54
35655;BME280;21773;50.010;19.972;2023-07-22T12:52:45;98568.19;;;31.33;81.29
35655;BME280;21773;50.010;19.972;2023-07-22T12:55:50;98569.47;;;31.01;79.03
35655;BME280;21773;50.010;19.972;2023-07-22T12:58:53;98563.13;;;31.20;80.60
35655;BME280;21773;50.010;19.972;2023-07-22T13:01:56;98556.09;;;31.45;77.25
35655;BME280;21773;50.010;19.972;2023-07-22T13:05:00;98548.72;;;31.95;80.70
35655;BME280;21773;50.010;19.972;2023-07-22T13:08:03;98552.56;;;32.09;72.13
35655;BME280;21773;50.010;19.972;2023-07-22T13:11:08;98555.00;;;32.11;68.28
35655;BME280;21773;50.010;19.972;2023-07-22T13:14:11;98552.28;;;31.72;62.24
35655;BME280;21773;50.010;19.972;2023-07-22T13:17:15;98542.75;;;31.73;65.84
35655;BME280;21773;50.010;19.972;2023-07-22T13:20:18;98547.00;;;32.09;62.97
35655;BME280;21773;50.010;19.972;2023-07-22T13:23:21;98554.31;;;31.95;56.13
35655;BME280;21773;50.010;19.972;2023-07-22T13:26:26;98551.63;;;32.02;58.92
35655;BME280;21773;50.010;19.972;2023-07-22T13:29:29;98550.88;;;31.82;59.19
35655;BME280;21773;50.010;19.972;2023-07-22T13:32:32;98548.69;;;31.72;62.52
35655;BME280;21773;50.010;19.972;2023-07-22T13:35:38;98541.94;;;31.73;63.17
35655;BME280;21773;50.010;19.972;2023-07-22T13:38:41;98548.31;;;31.73;66.13
35655;BME280;21773;50.010;19.972;2023-07-22T13:41:45;98540.22;;;31.88;65.73
35655;BME280;21773;50.010;19.972;2023-07-22T13:44:49;98539.53;;;32.13;63.96
35655;BME280;21773;50.010;19.972;2023-07-22T13:47:54;98536.78;;;32.17;61.49
35655;BME280;21773;50.010;19.972;2023-07-22T13:50:57;98535.94;;;31.94;60.52
35655;BME280;21773;50.010;19.972;2023-07-22T13:54:01;98520.97;;;31.79;63.53
35655;BME280;21773;50.010;19.972;2023-07-22T13:57:06;98526.56;;;31.60;63.96
35655;BME280;21773;50.010;19.972;2023-07-22T14:00:10;98534.69;;;31.30;63.14
35655;BME280;21773;50.010;19.972;2023-07-22T14:03:14;98527.81;;;31.24;62.14
35655;BME280;21773;50.010;19.972;2023-07-22T14:06:17;98542.94;;;31.42;63.93
35655;BME280;21773;50.010;19.972;2023-07-22T14:09:20;98536.91;;;31.40;63.88
35655;BME280;21773;50.010;19.972;2023-07-22T14:12:30;98530.75;;;31.50;66.31
35655;BME280;21773;50.010;19.972;2023-07-22T14:15:33;98542.19;;;31.45;64.84
35655;BME280;21773;50.010;19.972;2023-07-22T14:18:38;98534.69;;;31.49;63.44
35655;BME280;21773;50.010;19.972;2023-07-22T14:21:41;98533.53;;;31.31;61.88
35655;BME280;21773;50.010;19.972;2023-07-22T14:24:44;98522.19;;;31.20;66.36
35655;BME280;21773;50.010;19.972;2023-07-22T14:27:49;98535.34;;;31.04;64.97
35655;BME280;21773;50.010;19.972;2023-07-22T14:30:52;98542.25;;;30.75;66.06
35655;BME280;21773;50.010;19.972;2023-07-22T14:33:55;98536.53;;;30.37;70.17
35655;BME280;21773;50.010;19.972;2023-07-22T14:36:58;98526.88;;;30.15;71.01
35655;BME280;21773;50.010;19.972;2023-07-22T14:40:02;98545.78;;;30.41;69.51
35655;BME280;21773;50.010;19.972;2023-07-22T14:43:08;98546.41;;;30.50;69.21
35655;BME280;21773;50.010;19.972;2023-07-22T14:46:11;98546.94;;;30.55;67.60
35655;BME280;21773;50.010;19.972;2023-07-22T14:49:14;98534.19;;;30.54;68.21
35655;BME280;21773;50.010;19.972;2023-07-22T14:52:18;98541.22;;;30.48;64.37
35655;BME280;21773;50.010;19.972;2023-07-22T14:55:21;98539.69;;;30.51;64.20
35655;BME280;21773;50.010;19.972;2023-07-22T14:58:26;98550.25;;;30.61;63.63
35655;BME280;21773;50.010;19.972;2023-07-22T15:01:37;98549.19;;;30.66;61.35
35655;BME280;21773;50.010;19.972;2023-07-22T15:04:41;98537.00;;;30.39;58.48
35655;BME280;21773;50.010;19.972;2023-07-22T15:07:44;98560.16;;;30.43;57.25
35655;BME280;21773;50.010;19.972;2023-07-22T15:10:48;98531.91;;;29.94;59.38
35655;BME280;21773;50.010;19.972;2023-07-22T15:13:53;98552.31;;;29.86;61.01
35655;BME280;21773;50.010;19.972;2023-07-22T15:16:56;98545.09;;;29.69;63.77
35655;BME280;21773;50.010;19.972;2023-07-22T15:19:59;98545.72;;;29.62;65.97
35655;BME280;21773;50.010;19.972;2023-07-22T15:23:02;98548.91;;;29.49;64.10
35655;BME280;21773;50.010;19.972;2023-07-22T15:26:06;98550.94;;;29.36;64.33
35655;BME280;21773;50.010;19.972;2023-07-22T15:29:10;98561.59;;;29.22;64.40
35655;BME280;21773;50.010;19.972;2023-07-22T15:32:13;98552.16;;;28.99;66.00
35655;BME280;21773;50.010;19.972;2023-07-22T15:35:17;98551.97;;;28.92;68.14
35655;BME280;21773;50.010;19.972;2023-07-22T15:38:24;98564.13;;;28.75;68.20
35655;BME280;21773;50.010;19.972;2023-07-22T15:41:28;98557.44;;;28.52;69.55
35655;BME280;21773;50.010;19.972;2023-07-22T15:44:33;98549.34;;;28.59;72.20
35655;BME280;21773;50.010;19.972;2023-07-22T15:47:36;98555.34;;;28.85;71.50
35655;BME280;21773;50.010;19.972;2023-07-22T15:50:39;98544.81;;;28.91;70.61
35655;BME280;21773;50.010;19.972;2023-07-22T15:53:42;98549.78;;;28.97;70.93